Time;durP1;ratioP1;P1;durP2;ratioP2;P2;SDS_P1;SDS_P2;PMS_P1;PMS_P2;Temp;Humidity;BMP_temperature;BMP_pressure;BME280_temperature;BME280_humidity;BME280_pressure;Samples;Min_cycle;Max_cycle;Signal;HPM_P1;HPM_P2
2021/10/26 00:02:03;;;;;;;;;;;;;;;13.17;53.75;101028.59;4921660;28;118198;-68
2021/10/26 00:04:29;;;;;;;;;;;;;;;13.15;53.85;101026.16;4924078;28;128406;-67
2021/10/26 00:06:55;;;;;;;;;;;;;;;13.15;53.77;101031.56;4922205;28;127070;-61
2021/10/26 00:09:22;;;;;;;;;;;;;;;13.15;53.86;101028.03;4925264;28;97954;-68
2021/10/26 00:11:48;;;;;;;;;;;;;;;13.13;54.00;101025.63;4924717;28;99011;-67
2021/10/26 00:14:13;;;;;;;;;;;;;;;13.13;53.93;101031.03;4923954;28;98366;-67
2021/10/26 00:16:39;;;;;;;;;;;;;;;13.13;53.78;101028.31;4922985;28;116892;-61
2021/10/26 00:19:05;;;;;;;;;;;;;;;13.13;53.87;101030.22;4923052;28;117406;-61
2021/10/26 00:21:31;;;;;;;;;;;;;;;13.12;53.93;101028.59;4925681;28;99116;-62
2021/10/26 00:23:57;;;;;;;;;;;;;;;13.12;53.93;101017.75;4924581;28;128760;-67
2021/10/26 00:26:23;;;;;;;;;;;;;;;13.12;53.86;101017.75;4924044;28;127617;-61
2021/10/26 00:28:49;;;;;;;;;;;;;;;13.12;54.19;101023.16;4921834;28;116951;-62
2021/10/26 00:31:18;;;;;;;;;;;;;;;13.10;54.05;101014.53;4916938;28;98477;-68
2021/10/26 00:33:44;;;;;;;;;;;;;;;13.10;54.04;101020.75;4906394;28;97873;-68
2021/10/26 00:36:10;;;;;;;;;;;;;;;13.09;54.04;101016.41;4910628;28;127491;-67
2021/10/26 00:38:36;;;;;;;;;;;;;;;13.09;54.14;101013.72;4923798;28;118669;-61
2021/10/26 00:41:02;;;;;;;;;;;;;;;13.09;54.15;101011.00;4923854;28;98605;-61
2021/10/26 00:43:28;;;;;;;;;;;;;;;13.09;54.00;101007.50;4923954;28;107185;-61
2021/10/26 00:45:55;;;;;;;;;;;;;;;13.09;54.15;101010.19;4924940;28;98448;-61
2021/10/26 00:48:21;;;;;;;;;;;;;;;13.08;53.99;101003.94;4924994;28;97816;-67
2021/10/26 00:50:47;;;;;;;;;;;;;;;13.08;54.23;101012.06;4923258;28;128058;-61
2021/10/26 00:53:17;;;;;;;;;;;;;;;13.07;54.20;101007.75;4905740;28;98751;-67
2021/10/26 00:55:43;;;;;;;;;;;;;;;13.08;54.13;101013.97;4924989;28;97894;-61
2021/10/26 00:58:09;;;;;;;;;;;;;;;13.06;54.15;101000.72;4923272;28;106922;-61
2021/10/26 01:00:35;;;;;;;;;;;;;;;13.05;54.29;101015.34;4918812;28;98661;-67
2021/10/26 01:03:01;;;;;;;;;;;;;;;13.04;54.09;101013.69;4915886;28;127849;-61
2021/10/26 01:05:27;;;;;;;;;;;;;;;13.03;54.33;101012.88;4921939;28;98268;-67
2021/10/26 01:07:53;;;;;;;;;;;;;;;13.02;54.10;101010.47;4924281;28;97930;-61
2021/10/26 01:10:19;;;;;;;;;;;;;;;13.01;54.35;101008.84;4920937;28;118041;-61
2021/10/26 01:12:45;;;;;;;;;;;;;;;12.99;54.23;101006.38;4924158;28;127135;-61
2021/10/26 01:15:11;;;;;;;;;;;;;;;12.97;54.23;100996.94;4922938;28;126692;-61
2021/10/26 01:17:37;;;;;;;;;;;;;;;12.97;54.52;100994.22;4920744;28;97839;-67
2021/10/26 01:20:04;;;;;;;;;;;;;;;12.95;54.23;100994.47;4923988;28;98434;-61
2021/10/26 01:22:30;;;;;;;;;;;;;;;12.93;54.33;100983.13;4905320;28;98662;-68
2021/10/26 01:24:58;;;;;;;;;;;;;;;12.91;54.40;100982.56;4904447;28;97926;-62
2021/10/26 01:27:24;;;;;;;;;;;;;;;12.89;54.37;100992.88;4902974;28;97888;-69
2021/10/26 01:29:50;;;;;;;;;;;;;;;12.89;54.51;100992.03;4903714;28;128089;-62
2021/10/26 01:32:16;;;;;;;;;;;;;;;12.87;54.33;100988.81;4903315;28;128696;-63
2021/10/26 01:34:42;;;;;;;;;;;;;;;12.84;54.13;100987.44;4903101;28;98099;-67
2021/10/26 01:37:09;;;;;;;;;;;;;;;12.82;54.24;100986.91;4904574;28;97889;-62
2021/10/26 01:39:35;;;;;;;;;;;;;;;12.79;54.04;100984.75;4904411;28;98201;-68
2021/10/26 01:42:01;;;;;;;;;;;;;;;12.76;54.17;100991.50;4903983;28;98592;-68
2021/10/26 01:44:28;;;;;;;;;;;;;;;12.75;54.23;100992.56;4905015;28;120519;-68
2021/10/26 01:46:54;;;;;;;;;;;;;;;12.73;54.09;100994.75;4904688;28;97918;-62
2021/10/26 01:49:20;;;;;;;;;;;;;;;12.72;54.10;100997.72;4902695;28;97937;-67
2021/10/26 01:51:47;;;;;;;;;;;;;;;12.70;53.99;100995.28;4902914;28;121792;-68
2021/10/26 01:54:13;;;;;;;;;;;;;;;12.70;53.95;101005.28;4904343;28;98266;-68
2021/10/26 01:56:40;;;;;;;;;;;;;;;12.67;53.83;100993.09;4904009;28;97930;-62
2021/10/26 01:59:06;;;;;;;;;;;;;;;12.65;53.90;100989.84;4904930;28;99036;-61
2021/10/26 02:01:32;;;;;;;;;;;;;;;12.64;54.02;100996.34;4912694;28;127817;-68
2021/10/26 02:03:58;;;;;;;;;;;;;;;12.64;53.80;100987.41;4922597;28;126876;-62
2021/10/26 02:06:24;;;;;;;;;;;;;;;12.62;53.90;100987.69;4924173;28;97934;-68
2021/10/26 02:08:50;;;;;;;;;;;;;;;12.62;53.83;100992.31;4922143;28;126963;-62
2021/10/26 02:11:16;;;;;;;;;;;;;;;12.61;53.99;100990.66;4922235;28;127449;-62
2021/10/26 02:13:42;;;;;;;;;;;;;;;12.60;53.68;100997.16;4904690;28;127690;-68
2021/10/26 02:16:08;;;;;;;;;;;;;;;12.58;53.84;100992.03;4902712;28;97851;-62
2021/10/26 02:18:34;;;;;;;;;;;;;;;12.57;53.79;100987.66;4902248;28;98204;-62
2021/10/26 02:21:00;;;;;;;;;;;;;;;12.57;53.65;100989.56;4905137;28;126627;-68
2021/10/26 02:23:26;;;;;;;;;;;;;;;12.56;53.72;100996.88;4922793;28;127543;-68
2021/10/26 02:25:52;;;;;;;;;;;;;;;12.55;53.79;100984.44;4922407;28;98293;-67
2021/10/26 02:28:18;;;;;;;;;;;;;;;12.53;53.76;100984.69;4921306;28;129074;-68
2021/10/26 02:30:44;;;;;;;;;;;;;;;12.53;53.74;100979.28;4922265;28;127777;-68
2021/10/26 02:33:10;;;;;;;;;;;;;;;12.53;53.81;100979.28;4923552;28;97907;-61
2021/10/26 02:35:36;;;;;;;;;;;;;;;12.52;53.99;100982.25;4922373;28;98082;-64
2021/10/26 02:38:03;;;;;;;;;;;;;;;12.51;53.68;100981.47;4923740;28;100878;-67
2021/10/26 02:40:29;;;;;;;;;;;;;;;12.51;53.31;100981.47;4921487;28;107105;-68
2021/10/26 02:42:55;;;;;;;;;;;;;;;12.49;53.63;100983.59;4905018;28;123424;-68
2021/10/26 02:45:27;;;;;;;;;;;;;;;12.48;53.71;100990.09;4907819;28;97685;-68
2021/10/26 02:47:53;;;;;;;;;;;;;;;12.47;53.68;100990.38;4926787;28;98932;-68
2021/10/26 02:50:19;;;;;;;;;;;;;;;12.45;53.85;100985.22;4925098;28;123185;-68
2021/10/26 02:52:46;;;;;;;;;;;;;;;12.44;53.68;100985.50;4926155;28;97717;-62
2021/10/26 02:55:11;;;;;;;;;;;;;;;12.45;53.79;100995.22;4926490;28;113175;-62
2021/10/26 02:57:37;;;;;;;;;;;;;;;12.44;53.87;101002.53;4923142;28;127186;-62
2021/10/26 03:00:06;;;;;;;;;;;;;;;12.42;53.63;100998.47;4925850;28;110253;-62
2021/10/26 03:02:32;;;;;;;;;;;;;;;12.41;53.59;101000.34;4924961;28;106820;-68
2021/10/26 03:04:58;;;;;;;;;;;;;;;12.39;53.72;100997.13;4916188;28;118428;-68
2021/10/26 03:07:24;;;;;;;;;;;;;;;12.39;53.67;100991.72;4905770;28;122988;-67
2021/10/26 03:09:50;;;;;;;;;;;;;;;12.37;53.70;100996.56;4919788;28;106167;-68
2021/10/26 03:12:16;;;;;;;;;;;;;;;12.35;53.73;100990.63;4925915;28;98492;-62
2021/10/26 03:14:42;;;;;;;;;;;;;;;12.33;53.82;100998.16;4908164;28;118114;-62
2021/10/26 03:17:08;;;;;;;;;;;;;;;12.29;53.68;100995.19;4914966;28;128249;-62
2021/10/26 03:19:34;;;;;;;;;;;;;;;12.28;53.78;101001.66;4925874;28;128552;-68
2021/10/26 03:22:00;;;;;;;;;;;;;;;12.25;53.58;101002.19;4924338;28;119934;-68
2021/10/26 03:24:26;;;;;;;;;;;;;;;12.24;53.66;101002.47;4923651;28;117438;-68
2021/10/26 03:26:52;;;;;;;;;;;;;;;12.21;53.79;101001.09;4923767;28;125771;-62
2021/10/26 03:29:18;;;;;;;;;;;;;;;12.19;53.92;101007.88;4924895;28;117574;-68
2021/10/26 03:31:44;;;;;;;;;;;;;;;12.17;53.87;101010.81;4910540;28;97878;-67
2021/10/26 03:34:10;;;;;;;;;;;;;;;12.14;53.76;101010.53;4906340;28;98077;-62
2021/10/26 03:36:35;;;;;;;;;;;;;;;12.12;53.96;101010.00;4906104;28;127005;-68
2021/10/26 03:39:02;;;;;;;;;;;;;;;12.09;53.93;101005.91;4924791;28;126063;-62
2021/10/26 03:41:28;;;;;;;;;;;;;;;12.07;53.72;100993.78;4925424;28;97908;-62
2021/10/26 03:43:54;;;;;;;;;;;;;;;12.05;54.09;100999.41;4924620;28;110603;-62
2021/10/26 03:46:20;;;;;;;;;;;;;;;12.04;53.78;101004.00;4925100;28;98959;-68
2021/10/26 03:48:46;;;;;;;;;;;;;;;12.01;53.73;100999.13;4924615;28;126114;-67
2021/10/26 03:51:13;;;;;;;;;;;;;;;11.99;53.94;100995.91;4923339;28;97947;-66
2021/10/26 03:53:39;;;;;;;;;;;;;;;11.98;53.66;100993.44;4925595;28;97733;-67
2021/10/26 03:56:04;;;;;;;;;;;;;;;11.97;54.02;101003.44;4925040;28;98158;-62
2021/10/26 03:58:32;;;;;;;;;;;;;;;11.96;53.89;101004.53;4924557;28;112149;-68
2021/10/26 04:00:58;;;;;;;;;;;;;;;11.94;53.76;101008.56;4924634;28;98231;-67
2021/10/26 04:03:24;;;;;;;;;;;;;;;11.91;53.52;101003.69;4924339;28;116115;-62
2021/10/26 04:08:23;;;;;;;;;;;;;;;11.89;53.81;101006.66;4905660;28;98657;-62
2021/10/26 04:10:53;;;;;;;;;;;;;;;11.87;53.80;101008.81;4906230;28;98449;-68
2021/10/26 04:13:20;;;;;;;;;;;;;;;11.87;53.75;101002.56;4904141;28;97895;-62
2021/10/26 04:15:46;;;;;;;;;;;;;;;11.86;53.73;101003.66;4904742;28;108280;-68
2021/10/26 04:18:13;;;;;;;;;;;;;;;11.85;53.70;100999.34;4903749;28;98653;-68
2021/10/26 04:20:39;;;;;;;;;;;;;;;11.85;53.58;101002.03;4906350;28;98271;-62
2021/10/26 04:23:05;;;;;;;;;;;;;;;11.83;54.14;100994.22;4906174;28;117628;-62
2021/10/26 04:25:32;;;;;;;;;;;;;;;11.83;53.68;100990.63;4905573;28;105188;-68
2021/10/26 04:28:01;;;;;;;;;;;;;;;11.83;54.03;100996.03;4905482;28;98577;-62
2021/10/26 04:30:27;;;;;;;;;;;;;;;11.82;53.76;101002.53;4906148;28;98077;-61
2021/10/26 04:32:53;;;;;;;;;;;;;;;11.81;53.59;100996.31;4902912;28;104275;-68
2021/10/26 04:35:19;;;;;;;;;;;;;;;11.80;53.72;100997.41;4921360;28;127178;-68
2021/10/26 04:37:45;;;;;;;;;;;;;;;11.79;54.02;100998.47;4906804;28;98479;-62
2021/10/26 04:40:12;;;;;;;;;;;;;;;11.77;53.68;101003.31;4919284;28;98127;-61
2021/10/26 04:42:38;;;;;;;;;;;;;;;11.76;54.05;101013.31;4916716;28;97861;-61
2021/10/26 04:45:07;;;;;;;;;;;;;;;11.74;53.59;101010.03;4921357;28;126712;-62
2021/10/26 04:47:32;;;;;;;;;;;;;;;11.74;53.79;101011.94;4912236;28;125271;-62
2021/10/26 04:49:58;;;;;;;;;;;;;;;11.73;53.75;101007.63;4918627;28;127718;-62
2021/10/26 04:52:24;;;;;;;;;;;;;;;11.72;53.87;101014.09;4914890;28;118014;-62
2021/10/26 04:54:50;;;;;;;;;;;;;;;11.71;53.74;101015.16;4919305;28;128723;-62
2021/10/26 04:57:16;;;;;;;;;;;;;;;11.72;53.80;101019.50;4918065;28;128980;-62
2021/10/26 04:59:42;;;;;;;;;;;;;;;11.72;53.63;101023.00;4923339;28;97937;-62
2021/10/26 05:02:08;;;;;;;;;;;;;;;11.74;54.12;101022.72;4912924;28;98116;-61
2021/10/26 05:04:34;;;;;;;;;;;;;;;11.75;53.99;101021.66;4901890;28;128681;-62
2021/10/26 05:07:01;;;;;;;;;;;;;;;11.75;53.97;101019.78;4902921;28;129032;-61
2021/10/26 05:09:27;;;;;;;;;;;;;;;11.76;53.86;101024.09;4905107;28;97925;-62
2021/10/26 05:11:53;;;;;;;;;;;;;;;11.77;54.05;101020.31;4904293;28;117787;-61
2021/10/26 05:14:19;;;;;;;;;;;;;;;11.79;54.12;101022.78;4903344;28;128000;-61
2021/10/26 05:16:45;;;;;;;;;;;;;;;11.80;54.25;101013.59;4902953;28;130004;-61
2021/10/26 05:19:12;;;;;;;;;;;;;;;11.82;54.32;101013.31;4903780;28;98443;-62
2021/10/26 05:21:38;;;;;;;;;;;;;;;11.83;54.25;101017.66;4905293;28;98153;-61
2021/10/26 05:24:04;;;;;;;;;;;;;;;11.83;53.91;101012.25;4902971;28;117703;-61
2021/10/26 05:26:34;;;;;;;;;;;;;;;11.84;54.11;101016.63;4920338;28;123860;-61
2021/10/26 05:29:00;;;;;;;;;;;;;;;11.83;54.40;101026.63;4921798;28;108636;-62
2021/10/26 05:31:27;;;;;;;;;;;;;;;11.85;54.38;101018.25;4907404;28;97881;-61
2021/10/26 05:33:53;;;;;;;;;;;;;;;11.83;54.19;101014.94;4901506;28;120559;-61
2021/10/26 05:36:18;;;;;;;;;;;;;;;11.85;54.17;101021.75;4905114;28;127123;-62
2021/10/26 05:38:44;;;;;;;;;;;;;;;11.87;54.00;101018.78;4902928;28;127711;-62
2021/10/26 05:41:11;;;;;;;;;;;;;;;11.88;54.17;101026.63;4905166;28;98067;-61
2021/10/26 05:43:38;;;;;;;;;;;;;;;11.91;54.76;101026.13;4904668;28;98891;-62
2021/10/26 05:46:04;;;;;;;;;;;;;;;11.94;54.08;101022.06;4908892;28;124664;-61
2021/10/26 05:48:32;;;;;;;;;;;;;;;11.96;54.20;101019.94;4921539;28;118630;-62
2021/10/26 05:50:59;;;;;;;;;;;;;;;11.99;54.36;101016.69;4921813;28;97996;-62
2021/10/26 05:53:24;;;;;;;;;;;;;;;12.02;54.33;101027.81;4920681;28;98218;-61
2021/10/26 05:55:50;;;;;;;;;;;;;;;12.05;54.30;101034.53;4922250;28;116632;-61
2021/10/26 05:58:16;;;;;;;;;;;;;;;12.08;54.36;101035.91;4916527;28;98315;-62
2021/10/26 06:00:42;;;;;;;;;;;;;;;12.10;54.19;101041.84;4903406;28;97860;-61
2021/10/26 06:03:09;;;;;;;;;;;;;;;12.12;54.55;101045.94;4902829;28;98568;-61
2021/10/26 06:05:35;;;;;;;;;;;;;;;12.13;54.49;101047.56;4906164;28;99584;-62
2021/10/26 06:08:01;;;;;;;;;;;;;;;12.17;54.45;101045.94;4921935;28;126807;-61
2021/10/26 06:10:27;;;;;;;;;;;;;;;12.19;54.43;101054.63;4934956;28;116847;-61
2021/10/26 06:13:08;;;;;;;;;;;;;;;12.23;54.47;101054.91;4922335;28;99186;-67
2021/10/26 06:15:34;;;;;;;;;;;;;;;12.26;54.31;101059.75;4924618;28;101414;-62
2021/10/26 06:18:00;;;;;;;;;;;;;;;12.31;54.23;101061.69;4924586;28;126449;-62
2021/10/26 06:20:26;;;;;;;;;;;;;;;12.35;54.32;101066.31;4924713;28;108788;-67
2021/10/26 06:22:52;;;;;;;;;;;;;;;12.39;54.35;101072.81;4921945;28;99033;-67
2021/10/26 06:25:18;;;;;;;;;;;;;;;12.45;54.32;101076.34;4907428;28;98181;-67
2021/10/26 06:27:44;;;;;;;;;;;;;;;12.49;54.31;101082.84;4919384;28;127290;-61
2021/10/26 06:30:11;;;;;;;;;;;;;;;12.53;54.31;101086.63;4910992;28;98058;-61
2021/10/26 06:32:41;;;;;;;;;;;;;;;12.57;54.32;101089.63;4904714;28;99692;-67
2021/10/26 06:35:07;;;;;;;;;;;;;;;12.60;54.22;101091.81;4907360;28;99015;-61
2021/10/26 06:37:35;;;;;;;;;;;;;;;12.63;54.58;101094.00;4906509;28;111868;-66
2021/10/26 06:40:03;;;;;;;;;;;;;;;12.67;54.53;101097.78;4913833;28;97685;-61
2021/10/26 06:42:29;;;;;;;;;;;;;;;12.71;54.31;101091.56;4910309;28;110501;-66
2021/10/26 06:44:55;;;;;;;;;;;;;;;12.76;54.30;101091.56;4907651;28;98819;-61
2021/10/26 06:47:21;;;;;;;;;;;;;;;12.82;54.27;101097.84;4907632;28;97715;-67
2021/10/26 06:49:46;;;;;;;;;;;;;;;12.88;54.30;101095.94;4906033;28;117390;-67
2021/10/26 06:52:13;;;;;;;;;;;;;;;12.91;54.28;101107.03;4905871;28;102545;-67
2021/10/26 06:54:39;;;;;;;;;;;;;;;12.93;54.19;101107.59;4909000;28;99302;-61
2021/10/26 06:57:05;;;;;;;;;;;;;;;12.96;54.44;101112.44;4885937;28;129181;-61
2021/10/26 06:59:31;;;;;;;;;;;;;;;12.97;54.34;101110.59;4887501;28;104812;-67
2021/10/26 07:01:57;;;;;;;;;;;;;;;12.99;54.29;101114.63;4887352;28;99031;-67
2021/10/26 07:04:23;;;;;;;;;;;;;;;13.02;54.41;101116.00;4887362;28;98382;-67
2021/10/26 07:06:49;;;;;;;;;;;;;;;13.05;54.46;101111.94;4886817;28;97859;-61
2021/10/26 07:09:15;;;;;;;;;;;;;;;13.08;54.55;101120.31;4886030;28;118639;-61
2021/10/26 07:11:41;;;;;;;;;;;;;;;13.13;54.58;101116.84;4883176;28;128852;-67
2021/10/26 07:14:07;;;;;;;;;;;;;;;13.17;54.42;101124.16;4887716;28;98302;-61
2021/10/26 07:16:33;;;;;;;;;;;;;;;13.21;54.58;101119.81;4885231;28;98081;-61
2021/10/26 07:18:59;;;;;;;;;;;;;;;13.30;54.43;101120.13;4916476;28;98181;-61
2021/10/26 07:21:25;;;;;;;;;;;;;;;13.39;54.27;101125.81;4924131;28;128655;-61
2021/10/26 07:23:51;;;;;;;;;;;;;;;13.46;54.60;101121.75;4907593;28;98739;-61
2021/10/26 07:26:17;;;;;;;;;;;;;;;13.58;54.19;101129.63;4913596;28;106348;-61
2021/10/26 07:28:43;;;;;;;;;;;;;;;13.69;54.18;101125.81;4888675;28;98737;-61
2021/10/26 07:31:09;;;;;;;;;;;;;;;13.80;53.92;101123.91;4884387;28;98558;-62
2021/10/26 07:33:35;;;;;;;;;;;;;;;14.01;53.52;101127.41;4885358;28;127681;-62
2021/10/26 07:36:05;;;;;;;;;;;;;;;14.22;53.36;101136.28;4886272;28;98447;-61
2021/10/26 07:38:35;;;;;;;;;;;;;;;14.35;53.07;101126.78;4900005;28;98485;-67
2021/10/26 07:41:02;;;;;;;;;;;;;;;14.46;53.02;101134.59;4905839;28;98397;-67
2021/10/26 07:43:29;;;;;;;;;;;;;;;14.62;53.33;101126.41;4906172;28;98731;-62
2021/10/26 07:45:57;;;;;;;;;;;;;;;14.73;53.32;101133.41;4905263;28;100016;-68
2021/10/26 07:48:24;;;;;;;;;;;;;;;14.86;53.09;101137.44;4907462;28;97762;-67
2021/10/26 07:50:51;;;;;;;;;;;;;;;14.95;52.72;101139.28;4905350;28;98595;-67
2021/10/26 07:53:18;;;;;;;;;;;;;;;15.00;52.77;101141.16;4904657;28;98551;-67
2021/10/26 07:55:46;;;;;;;;;;;;;;;15.10;52.88;101145.72;4905412;28;97707;-67
2021/10/26 07:58:12;;;;;;;;;;;;;;;15.15;53.31;101140.25;4888935;28;98281;-62
2021/10/26 08:00:38;;;;;;;;;;;;;;;15.10;53.39;101141.09;4904624;28;127619;-67
2021/10/26 08:03:04;;;;;;;;;;;;;;;15.17;53.19;101147.03;4915922;28;98195;-61
2021/10/26 08:05:30;;;;;;;;;;;;;;;15.30;52.93;101152.94;4887776;28;98029;-62
2021/10/26 08:07:57;;;;;;;;;;;;;;;15.61;52.70;101145.34;4903333;28;97853;-67
2021/10/26 08:10:23;;;;;;;;;;;;;;;15.73;52.80;101150.44;4887086;28;98138;-62
2021/10/26 08:12:49;;;;;;;;;;;;;;;15.61;53.22;101158.94;4904012;28;98362;-66
2021/10/26 08:15:15;;;;;;;;;;;;;;;15.62;53.06;101152.41;4902890;28;118777;-62
2021/10/26 08:17:41;;;;;;;;;;;;;;;15.63;53.07;101151.31;4903636;28;98378;-62
2021/10/26 08:20:07;;;;;;;;;;;;;;;15.65;53.07;101147.25;4904322;28;125977;-66
2021/10/26 08:22:38;;;;;;;;;;;;;;;15.73;53.42;101151.25;4902901;28;97956;-62
2021/10/26 08:25:10;;;;;;;;;;;;;;;15.76;53.36;101155.28;4903016;28;97874;-61
2021/10/26 08:27:36;;;;;;;;;;;;;;;15.82;53.45;101160.41;4905281;28;98265;-68
2021/10/26 08:30:18;;;;;;;;;;;;;;;15.84;53.50;101155.50;4914445;28;98273;-67
2021/10/26 08:32:50;;;;;;;;;;;;;;;15.82;53.31;101149.53;4924385;28;98266;-62
2021/10/26 08:35:25;;;;;;;;;;;;;;;15.82;53.49;101154.97;4924478;28;98345;-63
2021/10/26 08:37:58;;;;;;;;;;;;;;;15.77;53.61;101160.47;4920924;28;98144;-67
2021/10/26 08:40:24;;;;;;;;;;;;;;;15.74;53.76;101160.22;4922567;28;99386;-62
2021/10/26 08:42:50;;;;;;;;;;;;;;;15.67;54.20;101161.34;4921510;28;98914;-67
2021/10/26 08:45:18;;;;;;;;;;;;;;;15.60;54.02;101165.44;4918542;28;97987;-62
2021/10/26 08:47:45;;;;;;;;;;;;;;;15.56;54.47;101170.66;4904746;28;107675;-61
2021/10/26 08:50:11;;;;;;;;;;;;;;;15.55;54.38;101168.22;4903056;28;99436;-67
2021/10/26 08:52:37;;;;;;;;;;;;;;;15.50;54.64;101170.97;4901838;28;112116;-68
2021/10/26 08:55:06;;;;;;;;;;;;;;;15.47;54.37;101172.34;4903592;28;128111;-67
2021/10/26 08:57:33;;;;;;;;;;;;;;;15.46;54.48;101173.44;4903863;28;98070;-67
2021/10/26 09:00:05;;;;;;;;;;;;;;;15.47;54.42;101167.72;4905246;28;99217;-66
2021/10/26 09:02:41;;;;;;;;;;;;;;;15.56;54.18;101159.81;4904358;28;98675;-61
2021/10/26 09:05:09;;;;;;;;;;;;;;;15.63;54.51;101157.53;4895453;28;97951;-67
2021/10/26 09:07:35;;;;;;;;;;;;;;;15.60;54.29;101160.00;4904961;28;97913;-62
2021/10/26 09:10:16;;;;;;;;;;;;;;;15.59;54.36;101170.06;4902973;28;122830;-61
2021/10/26 09:17:55;;;;;;;;;;;;;;;15.83;54.23;101174.81;4908579;28;97920;-62
2021/10/26 09:20:22;;;;;;;;;;;;;;;15.80;54.45;101168.06;4924304;28;99688;-62
2021/10/26 09:22:50;;;;;;;;;;;;;;;15.80;54.41;101173.50;4923393;28;98856;-62
2021/10/26 09:25:17;;;;;;;;;;;;;;;15.81;54.67;101169.66;4924402;28;98484;-62
2021/10/26 09:27:44;;;;;;;;;;;;;;;15.84;54.25;101162.84;4919048;28;98015;-63
2021/10/26 09:30:11;;;;;;;;;;;;;;;15.89;54.60;101173.69;4905668;28;98465;-62
2021/10/26 09:32:41;;;;;;;;;;;;;;;15.96;54.54;101174.16;4904174;28;99654;-61
2021/10/26 09:35:09;;;;;;;;;;;;;;;16.10;53.96;101182.44;4904392;28;97763;-68
2021/10/26 09:37:39;;;;;;;;;;;;;;;16.19;54.29;101183.44;4905604;28;98083;-62
2021/10/26 09:40:06;;;;;;;;;;;;;;;16.29;53.81;101191.50;4904247;28;112992;-68
2021/10/26 09:42:47;;;;;;;;;;;;;;;16.37;54.07;101184.63;4899109;28;97956;-62
2021/10/26 09:45:25;;;;;;;;;;;;;;;16.39;54.16;101191.41;4891758;28;97989;-62
2021/10/26 09:47:59;;;;;;;;;;;;;;;16.37;54.35;101176.47;4886811;28;97707;-62
2021/10/26 09:50:32;;;;;;;;;;;;;;;16.39;54.26;101185.97;4904164;28;98673;-62
2021/10/26 09:53:09;;;;;;;;;;;;;;;16.50;54.44;101177.66;4903443;28;98482;-62
2021/10/26 09:55:46;;;;;;;;;;;;;;;16.61;54.07;101184.63;4904820;28;98946;-62
2021/10/26 09:58:15;;;;;;;;;;;;;;;16.67;54.18;101183.47;4920715;28;97949;-62
2021/10/26 10:00:46;;;;;;;;;;;;;;;16.76;54.25;101194.56;4923310;28;98877;-62
2021/10/26 10:03:25;;;;;;;;;;;;;;;16.67;54.18;101189.72;4921290;28;98061;-62
2021/10/26 10:05:54;;;;;;;;;;;;;;;16.65;54.37;101193.81;4923612;28;97957;-62
2021/10/26 10:08:24;;;;;;;;;;;;;;;16.75;54.51;101182.06;4922056;28;109231;-62
2021/10/26 10:10:51;;;;;;;;;;;;;;;16.88;54.17;101184.06;4917071;28;98592;-68
2021/10/26 10:13:17;;;;;;;;;;;;;;;16.95;54.22;101191.88;4909888;28;98806;-62
2021/10/26 10:15:49;;;;;;;;;;;;;;;17.01;54.21;101193.41;4923388;28;98461;-62
2021/10/26 10:18:18;;;;;;;;;;;;;;;17.02;54.33;101195.03;4921486;28;112872;-68
2021/10/26 10:20:46;;;;;;;;;;;;;;;17.02;54.45;101192.31;4924421;28;98559;-62
2021/10/26 10:23:12;;;;;;;;;;;;;;;17.08;54.39;101191.94;4922356;28;97996;-62
2021/10/26 10:25:40;;;;;;;;;;;;;;;17.24;54.28;101180.84;4906022;28;109533;-68
2021/10/26 10:28:07;;;;;;;;;;;;;;;17.30;54.29;101180.47;4901428;28;97865;-62
2021/10/26 10:30:33;;;;;;;;;;;;;;;17.34;54.24;101176.06;4901354;28;99970;-68
2021/10/26 10:32:59;;;;;;;;;;;;;;;17.39;54.37;101172.44;4910115;28;98664;-62
2021/10/26 10:35:26;;;;;;;;;;;;;;;17.49;54.28;101182.34;4921572;28;97813;-68
2021/10/26 10:37:53;;;;;;;;;;;;;;;17.56;54.28;101177.34;4921803;28;116509;-68
2021/10/26 10:40:26;;;;;;;;;;;;;;;17.65;54.08;101175.56;4921733;28;99240;-62
2021/10/26 10:42:52;;;;;;;;;;;;;;;17.76;54.10;101168.84;4921393;28;98859;-62
2021/10/26 10:45:26;;;;;;;;;;;;;;;17.85;53.94;101167.09;4922500;28;97761;-68
2021/10/26 10:47:53;;;;;;;;;;;;;;;17.91;53.95;101173.25;4922147;28;98021;-62
2021/10/26 10:50:27;;;;;;;;;;;;;;;17.90;54.26;101164.25;4922298;28;99222;-62
2021/10/26 10:53:13;;;;;;;;;;;;;;;17.83;54.38;101168.47;4912658;28;99073;-68
2021/10/26 10:55:41;;;;;;;;;;;;;;;17.77;54.67;101170.50;4923626;28;98528;-63
2021/10/26 10:58:30;;;;;;;;;;;;;;;17.74;54.86;101167.53;4924595;28;98055;-62
2021/10/26 11:01:18;;;;;;;;;;;;;;;17.75;54.82;101169.16;4925130;28;98351;-68
2021/10/26 11:03:44;;;;;;;;;;;;;;;17.84;54.58;101161.91;4924645;28;97940;-63
2021/10/26 11:06:12;;;;;;;;;;;;;;;17.90;54.52;101161.53;4924553;28;126886;-62
2021/10/26 11:08:48;;;;;;;;;;;;;;;17.91;54.81;101165.88;4922657;28;98009;-62
2021/10/26 11:11:17;;;;;;;;;;;;;;;17.83;54.87;101165.75;4911369;28;97830;-62
2021/10/26 11:13:43;;;;;;;;;;;;;;;17.79;55.16;101160.09;4905529;28;120069;-62
2021/10/26 11:16:10;;;;;;;;;;;;;;;17.85;55.07;101166.28;4905707;28;98780;-62
2021/10/26 11:18:49;;;;;;;;;;;;;;;18.01;54.81;101162.16;4909693;28;97895;-68
2021/10/26 11:21:24;;;;;;;;;;;;;;;18.27;54.27;101161.69;4916735;28;98964;-62
2021/10/26 11:24:01;;;;;;;;;;;;;;;18.30;54.32;101161.09;4915682;28;98784;-62
2021/10/26 11:26:45;;;;;;;;;;;;;;;18.36;54.46;101152.50;4925136;28;98049;-68
2021/10/26 11:29:13;;;;;;;;;;;;;;;18.63;54.13;101157.16;4925043;28;111388;-68
2021/10/26 11:31:49;;;;;;;;;;;;;;;18.91;53.78;101161.81;4925371;28;97716;-62
2021/10/26 11:34:29;;;;;;;;;;;;;;;18.94;53.75;101155.69;4908628;28;98939;-62
2021/10/26 11:37:03;;;;;;;;;;;;;;;18.87;54.19;101159.69;4903279;28;121812;-69
2021/10/26 11:39:29;;;;;;;;;;;;;;;18.80;54.28;101164.75;4904322;28;97937;-63
2021/10/26 11:41:58;;;;;;;;;;;;;;;18.91;54.37;101161.81;4898298;28;127516;-68
2021/10/26 11:44:24;;;;;;;;;;;;;;;19.09;54.17;101169.81;4925551;28;98941;-68
2021/10/26 11:46:50;;;;;;;;;;;;;;;19.15;54.06;101167.81;4922514;28;127244;-69
2021/10/26 11:49:23;;;;;;;;;;;;;;;19.15;54.10;101172.47;4916894;28;97950;-68
2021/10/26 11:52:06;;;;;;;;;;;;;;;19.11;54.23;101172.28;4905793;28;97902;-68
2021/10/26 11:54:52;;;;;;;;;;;;;;;19.12;54.27;101165.69;4906390;28;98347;-62
2021/10/26 11:57:22;;;;;;;;;;;;;;;19.06;54.39;101164.16;4911155;28;98247;-68
2021/10/26 11:59:48;;;;;;;;;;;;;;;19.09;54.44;101161.63;4904655;28;97825;-62
2021/10/26 12:02:16;;;;;;;;;;;;;;;19.13;54.55;101159.91;4903808;28;100665;-68
2021/10/26 12:04:55;;;;;;;;;;;;;;;19.18;54.57;101158.16;4905714;28;98602;-61
2021/10/26 12:07:22;;;;;;;;;;;;;;;19.32;54.29;101154.28;4905631;28;97884;-68
2021/10/26 12:09:55;;;;;;;;;;;;;;;19.32;54.19;101153.47;4908249;28;98076;-63
2021/10/26 12:12:22;;;;;;;;;;;;;;;19.24;54.53;101162.41;4904561;28;98325;-68
2021/10/26 12:14:52;;;;;;;;;;;;;;;19.21;54.64;101166.56;4923180;28;99171;-62
2021/10/26 12:17:25;;;;;;;;;;;;;;;19.21;54.80;101161.09;4924975;28;97954;-62
2021/10/26 12:19:52;;;;;;;;;;;;;;;19.13;54.83;101159.91;4925636;28;97680;-66
2021/10/26 12:22:26;;;;;;;;;;;;;;;19.18;54.73;101159.00;4924270;28;98219;-68
2021/10/26 12:25:00;;;;;;;;;;;;;;;19.15;54.73;101165.06;4916831;28;98556;-62
2021/10/26 12:27:36;;;;;;;;;;;;;;;19.06;54.98;101161.44;4904141;28;97827;-68
2021/10/26 12:30:20;;;;;;;;;;;;;;;19.02;55.30;101163.16;4903925;28;97820;-68
2021/10/26 12:32:50;;;;;;;;;;;;;;;18.87;55.24;101161.59;4905920;28;99010;-68
2021/10/26 12:35:16;;;;;;;;;;;;;;;18.79;55.46;101151.41;4924801;28;109521;-62
2021/10/26 12:37:42;;;;;;;;;;;;;;;18.76;55.47;101147.34;4905183;28;97968;-62
2021/10/26 12:40:16;;;;;;;;;;;;;;;18.81;55.35;101149.97;4903903;28;97738;-62
2021/10/26 12:42:45;;;;;;;;;;;;;;;18.87;55.22;101156.94;4903628;28;98150;-62
2021/10/26 12:45:12;;;;;;;;;;;;;;;18.94;55.09;101147.50;4906145;28;98009;-67